createdAt,value
2019-02-12T00:00:44.018Z,3.00
2019-02-12T00:03:13.652Z,3.00
2019-02-12T00:05:43.270Z,3.00
2019-02-12T00:08:12.905Z,3.00
2019-02-12T00:10:42.511Z,3.10
2019-02-12T00:13:12.151Z,3.20
2019-02-12T00:15:41.767Z,3.30
2019-02-12T00:18:11.409Z,3.30
2019-02-12T00:20:41.094Z,3.30
2019-02-12T00:23:10.739Z,3.40
2019-02-12T00:25:40.351Z,3.40
2019-02-12T00:28:09.960Z,3.40
2019-02-12T00:30:39.610Z,3.40
2019-02-12T00:33:09.300Z,3.40
2019-02-12T00:35:38.945Z,3.40
2019-02-12T00:38:08.567Z,3.30
2019-02-12T00:40:38.479Z,3.30
2019-02-12T00:43:08.117Z,3.30
2019-02-12T00:45:37.754Z,3.30
2019-02-12T00:48:07.381Z,3.30
2019-02-12T00:50:37.036Z,3.30
2019-02-12T00:53:06.668Z,3.30
2019-02-12T00:55:36.389Z,3.30
2019-02-12T00:58:06.008Z,3.30
2019-02-12T01:00:35.751Z,3.30
2019-02-12T01:03:05.450Z,3.30
2019-02-12T01:05:35.098Z,3.20
2019-02-12T01:08:04.735Z,3.20
2019-02-12T01:10:34.710Z,3.20
2019-02-12T01:13:04.334Z,3.10
2019-02-12T01:15:34.133Z,3.10
2019-02-12T01:18:03.762Z,3.00
2019-02-12T01:20:33.441Z,3.10
2019-02-12T01:23:03.089Z,3.10
2019-02-12T01:25:32.733Z,3.00
2019-02-12T01:28:02.372Z,3.00
2019-02-12T01:30:32.032Z,3.00
2019-02-12T01:33:01.660Z,2.90
2019-02-12T01:35:31.341Z,2.90
2019-02-12T01:38:00.975Z,2.90
2019-02-12T01:40:30.713Z,2.90
2019-02-12T01:43:00.351Z,2.90
2019-02-12T01:45:30.005Z,3.00
2019-02-12T01:47:59.642Z,3.10
2019-02-12T01:50:29.291Z,3.00
2019-02-12T01:52:58.932Z,3.00
2019-02-12T01:55:28.591Z,3.10
2019-02-12T01:57:58.223Z,3.20
2019-02-12T02:00:27.994Z,3.20
2019-02-12T02:02:57.637Z,3.10
2019-02-12T02:05:27.288Z,3.10
2019-02-12T02:07:56.923Z,3.00
2019-02-12T02:10:26.584Z,3.00
2019-02-12T02:12:56.290Z,3.00
2019-02-12T02:15:25.946Z,3.00
2019-02-12T02:17:55.574Z,3.00
2019-02-12T02:20:25.230Z,3.00
2019-02-12T02:22:54.858Z,3.10
2019-02-12T02:25:24.509Z,3.00
2019-02-12T02:27:54.138Z,2.90
2019-02-12T02:30:23.897Z,2.90
2019-02-12T02:32:53.518Z,2.80
2019-02-12T02:35:23.181Z,2.60
2019-02-12T02:37:52.805Z,2.60
2019-02-12T02:40:22.543Z,2.60
2019-02-12T02:42:52.162Z,2.50
2019-02-12T02:45:21.823Z,2.60
2019-02-12T02:47:51.442Z,2.60
2019-02-12T02:50:21.256Z,2.60
2019-02-12T02:52:50.890Z,2.50
2019-02-12T02:55:20.549Z,2.50
2019-02-12T02:57:50.245Z,2.50
2019-02-12T03:00:20.066Z,2.40
2019-02-12T03:02:49.699Z,2.40
2019-02-12T03:05:19.355Z,2.40
2019-02-12T03:07:48.980Z,2.30
2019-02-12T03:10:18.729Z,2.20
2019-02-12T03:12:48.426Z,2.30
2019-02-12T03:15:18.084Z,2.40
2019-02-12T03:17:47.710Z,2.50
2019-02-12T03:20:17.461Z,2.50
2019-02-12T03:22:47.091Z,2.50
2019-02-12T03:25:16.741Z,2.50
2019-02-12T03:27:46.370Z,2.60
2019-02-12T03:30:16.109Z,2.60
2019-02-12T03:32:45.737Z,2.60
2019-02-12T03:35:15.394Z,2.60
2019-02-12T03:37:45.037Z,2.70
2019-02-12T03:40:14.746Z,2.60
2019-02-12T03:42:44.370Z,2.60
2019-02-12T03:45:14.571Z,2.60
2019-02-12T03:47:44.213Z,2.60
2019-02-12T03:50:13.981Z,2.60
2019-02-12T03:52:43.644Z,2.50
2019-02-12T03:55:13.810Z,2.60
2019-02-12T03:57:43.551Z,2.50
2019-02-12T04:00:15.490Z,2.60
2019-02-12T04:03:01.724Z,2.60
2019-02-12T04:05:31.502Z,2.60
2019-02-12T04:08:01.393Z,2.60
2019-02-12T04:10:31.026Z,2.60
2019-02-12T04:13:00.910Z,2.60
2019-02-12T04:15:30.572Z,2.60
2019-02-12T04:18:00.262Z,2.60
2019-02-12T04:20:29.917Z,2.60
2019-02-12T04:22:59.549Z,2.50
2019-02-12T04:25:29.176Z,2.50
2019-02-12T04:27:58.836Z,2.50
2019-02-12T04:30:28.463Z,2.50
2019-02-12T04:32:58.118Z,2.60
2019-02-12T04:35:27.756Z,2.80
2019-02-12T04:37:57.423Z,2.90
2019-02-12T04:40:27.047Z,2.80
2019-02-12T04:42:56.703Z,2.70
2019-02-12T04:45:26.330Z,2.70
2019-02-12T04:47:55.985Z,2.70
2019-02-12T04:50:25.619Z,2.60
2019-02-12T04:52:55.275Z,2.70
2019-02-12T04:55:24.903Z,2.70
2019-02-12T04:57:54.556Z,2.60
2019-02-12T05:00:24.194Z,2.60
2019-02-12T05:02:53.852Z,2.50
2019-02-12T05:05:23.491Z,2.50
2019-02-12T05:07:53.147Z,2.50
2019-02-12T05:10:34.604Z,2.40
2019-02-12T05:13:04.231Z,2.50
2019-02-12T05:15:33.854Z,2.60
2019-02-12T05:18:03.510Z,2.50
2019-02-12T05:20:33.171Z,2.60
2019-02-12T05:23:02.918Z,2.50
2019-02-12T05:25:32.537Z,2.50
2019-02-12T05:28:02.185Z,2.50
2019-02-12T05:30:31.809Z,2.40
2019-02-12T05:33:01.466Z,2.50
2019-02-12T05:35:31.094Z,2.40
2019-02-12T05:38:00.813Z,2.30
2019-02-12T05:40:30.476Z,2.20
2019-02-12T05:43:00.126Z,2.30
2019-02-12T05:45:29.793Z,2.30
2019-02-12T05:47:59.419Z,2.30
2019-02-12T05:50:29.064Z,2.40
2019-02-12T05:52:58.727Z,2.50
2019-02-12T05:55:28.355Z,2.60
2019-02-12T05:57:58.011Z,2.50
2019-02-12T06:00:29.315Z,2.50
2019-02-12T06:02:58.968Z,2.40
2019-02-12T06:05:30.061Z,2.50
2019-02-12T06:07:59.689Z,2.50
2019-02-12T06:10:29.446Z,2.50
2019-02-12T06:12:59.099Z,2.60
2019-02-12T06:15:28.731Z,2.60
2019-02-12T06:17:58.377Z,2.50
2019-02-12T06:20:28.017Z,2.60
2019-02-12T06:23:03.747Z,2.50
2019-02-12T06:25:28.942Z,2.50
2019-02-12T06:27:58.583Z,2.50
2019-02-12T06:30:28.213Z,2.60
2019-02-12T06:33:06.996Z,2.50
2019-02-12T06:35:29.121Z,2.60
2019-02-12T06:37:58.776Z,2.60
2019-02-12T06:40:28.402Z,2.70
2019-02-12T06:42:58.072Z,2.70
2019-02-12T06:45:27.711Z,2.60
2019-02-12T06:47:57.355Z,2.60
2019-02-12T06:50:26.988Z,2.70
2019-02-12T06:52:56.887Z,2.70
2019-02-12T06:55:26.553Z,2.70
2019-02-12T06:57:56.182Z,2.70
2019-02-12T07:00:25.835Z,2.60
2019-02-12T07:03:15.938Z,2.60
2019-02-12T07:06:06.796Z,2.60
2019-02-12T07:08:45.146Z,2.60
2019-02-12T07:11:51.284Z,2.50
2019-02-12T07:14:29.574Z,2.60
2019-02-12T07:17:14.064Z,2.50
2019-02-12T07:20:07.990Z,2.50
2019-02-12T07:22:49.266Z,2.60
2019-02-12T07:25:47.686Z,2.60
2019-02-12T07:28:50.174Z,2.60
2019-02-12T07:31:42.380Z,2.60
2019-02-12T07:34:42.423Z,2.80
2019-02-12T07:37:29.950Z,2.80
2019-02-12T07:40:02.675Z,3.00
2019-02-12T07:42:44.327Z,3.10
2019-02-12T07:45:25.669Z,3.10
2019-02-12T07:48:14.811Z,3.20
2019-02-12T07:50:59.266Z,3.40
2019-02-12T07:56:44.457Z,3.50
2019-02-12T07:59:35.523Z,3.50
2019-02-12T08:02:13.699Z,3.70
2019-02-12T08:05:01.683Z,3.90
2019-02-12T08:07:42.649Z,4.00
2019-02-12T08:10:33.143Z,4.30
2019-02-12T08:13:17.889Z,4.40
2019-02-12T08:15:56.132Z,4.70
2019-02-12T08:18:31.623Z,5.20
2019-02-12T08:21:22.425Z,5.50
2019-02-12T08:24:13.339Z,6.10
2019-02-12T08:27:02.500Z,6.20
2019-02-12T08:29:35.216Z,6.00
2019-02-12T08:32:24.608Z,6.40
2019-02-12T08:35:26.018Z,6.30
2019-02-12T08:38:04.514Z,6.70
2019-02-12T08:40:43.118Z,6.50
2019-02-12T08:43:15.827Z,6.10
2019-02-12T08:45:57.327Z,5.50
2019-02-12T08:48:32.967Z,5.50
2019-02-12T08:51:26.253Z,5.40
2019-02-12T08:54:15.637Z,5.10
2019-02-12T08:56:54.410Z,5.00
2019-02-12T08:59:29.622Z,4.90
2019-02-12T09:02:07.594Z,5.00
2019-02-12T09:04:49.178Z,4.90
2019-02-12T09:07:21.907Z,4.90
2019-02-12T09:10:11.412Z,4.80
2019-02-12T09:12:49.863Z,4.80
2019-02-12T09:15:34.574Z,5.00
2019-02-12T09:18:13.065Z,5.10
2019-02-12T09:20:48.487Z,5.00
2019-02-12T09:23:24.111Z,4.90
2019-02-12T09:25:56.840Z,4.90
2019-02-12T09:28:38.274Z,4.90
2019-02-12T09:31:23.094Z,4.90
2019-02-12T09:34:07.682Z,5.00
2019-02-12T09:36:52.240Z,5.10
2019-02-12T09:39:41.581Z,5.40
2019-02-12T09:42:22.997Z,5.80
2019-02-12T09:45:30.539Z,6.60
2019-02-12T09:48:06.090Z,7.50
2019-02-12T09:50:44.469Z,8.60
2019-02-12T09:53:36.694Z,8.00
2019-02-12T09:56:18.578Z,8.00
2019-02-12T09:59:15.361Z,7.60
2019-02-12T10:02:04.934Z,7.60
2019-02-12T10:05:01.550Z,8.10
2019-02-12T10:07:37.279Z,9.80
2019-02-12T10:10:29.587Z,11.50
2019-02-12T10:13:08.063Z,11.60
2019-02-12T10:15:40.771Z,12.90
2019-02-12T10:18:19.209Z,13.50
2019-02-12T10:21:09.738Z,12.60
2019-02-12T10:24:02.102Z,12.00
2019-02-12T10:26:43.494Z,11.50
2019-02-12T10:29:25.362Z,10.70
2019-02-12T10:31:53.909Z,10.10
2019-02-12T10:34:23.561Z,11.40
2019-02-12T10:36:53.197Z,13.00
2019-02-12T10:39:22.853Z,15.10
2019-02-12T10:41:52.491Z,15.90
2019-02-12T10:44:22.210Z,16.30
2019-02-12T10:46:51.829Z,16.70
2019-02-12T10:49:21.490Z,18.70
2019-02-12T10:51:51.135Z,20.30
2019-02-12T10:54:27.775Z,21.50
2019-02-12T10:56:52.027Z,19.50
2019-02-12T10:59:21.688Z,17.50
2019-02-12T11:01:51.293Z,17.60
2019-02-12T11:04:21.618Z,17.80
2019-02-12T11:06:51.374Z,16.90
2019-02-12T11:09:21.021Z,15.10
2019-02-12T11:11:50.657Z,13.00
2019-02-12T11:14:20.309Z,14.10
2019-02-12T11:16:50.007Z,15.40
2019-02-12T11:19:19.646Z,17.80
2019-02-12T11:21:49.273Z,20.30
2019-02-12T11:24:18.918Z,18.70
2019-02-12T11:26:48.539Z,17.40
2019-02-12T11:29:18.189Z,18.40
2019-02-12T11:31:47.811Z,17.90
2019-02-12T11:34:17.453Z,17.80
2019-02-12T11:36:47.077Z,17.40
2019-02-12T11:39:16.726Z,16.50
2019-02-12T11:41:46.348Z,17.90
2019-02-12T11:44:15.990Z,19.10
2019-02-12T11:46:45.617Z,19.20
2019-02-12T11:49:15.266Z,19.40
2019-02-12T11:51:44.898Z,18.60
2019-02-12T11:54:14.558Z,17.70
2019-02-12T11:56:44.186Z,16.90
2019-02-12T11:59:13.838Z,15.40
2019-02-12T12:01:43.526Z,14.80
2019-02-12T12:04:13.182Z,14.30
2019-02-12T12:06:42.809Z,13.10
2019-02-12T12:09:12.458Z,12.80
2019-02-12T12:11:42.092Z,12.70
2019-02-12T12:14:11.745Z,11.90
2019-02-12T12:16:41.370Z,11.40
2019-02-12T12:19:11.090Z,10.60
2019-02-12T12:21:40.710Z,9.60
2019-02-12T12:24:10.366Z,9.50
2019-02-12T12:26:40.003Z,9.30
2019-02-12T12:29:09.638Z,9.00
2019-02-12T12:31:39.262Z,8.90
2019-02-12T12:34:08.915Z,8.50
2019-02-12T12:36:38.531Z,8.70
2019-02-12T12:39:08.341Z,9.00
2019-02-12T12:41:37.978Z,10.80
2019-02-12T12:44:07.634Z,10.90
2019-02-12T12:46:37.347Z,12.30
2019-02-12T12:49:06.995Z,13.20
2019-02-12T12:51:36.656Z,13.00
2019-02-12T12:54:06.291Z,11.20
2019-02-12T12:56:35.941Z,10.10
2019-02-12T12:59:05.630Z,9.60
2019-02-12T13:01:35.360Z,9.70
2019-02-12T13:04:04.978Z,9.60
2019-02-12T13:06:34.627Z,9.40
2019-02-12T13:09:05.686Z,9.10
2019-02-12T13:11:35.331Z,8.90
2019-02-12T13:14:05.037Z,8.50
2019-02-12T13:16:34.694Z,8.20
2019-02-12T13:19:04.314Z,8.10
2019-02-12T13:21:33.967Z,8.00
2019-02-12T13:24:03.717Z,8.00
2019-02-12T13:26:33.361Z,7.90
2019-02-12T13:29:02.995Z,7.80
2019-02-12T13:31:32.646Z,7.90
2019-02-12T13:34:02.280Z,7.80
2019-02-12T13:36:31.922Z,8.00
2019-02-12T13:39:01.540Z,8.10
2019-02-12T13:41:31.191Z,8.30
2019-02-12T13:44:00.820Z,8.50
2019-02-12T13:46:30.462Z,8.30
2019-02-12T13:49:00.078Z,8.30
2019-02-12T13:51:29.723Z,8.20
2019-02-12T13:53:59.351Z,8.00
2019-02-12T13:56:28.998Z,7.80
2019-02-12T13:58:58.622Z,7.80
2019-02-12T14:01:28.279Z,7.90
2019-02-12T14:03:57.918Z,8.00
2019-02-12T14:06:27.626Z,8.00
2019-02-12T14:08:57.255Z,7.90
2019-02-12T14:11:26.913Z,7.90
2019-02-12T14:13:56.526Z,7.80
2019-02-12T14:16:26.174Z,7.80
2019-02-12T14:18:55.801Z,7.90
2019-02-12T14:21:25.451Z,8.00
2019-02-12T14:23:55.062Z,8.00
2019-02-12T14:26:24.713Z,7.90
2019-02-12T14:28:54.341Z,7.90
2019-02-12T14:31:24.858Z,7.90
2019-02-12T14:33:54.558Z,7.90
2019-02-12T14:36:24.211Z,7.90
2019-02-12T14:38:53.827Z,7.80
2019-02-12T14:41:23.478Z,7.70
2019-02-12T14:43:53.099Z,7.70
2019-02-12T14:46:22.738Z,7.70
2019-02-12T14:48:52.943Z,7.60
2019-02-12T14:51:22.604Z,7.40
2019-02-12T14:53:52.218Z,7.40
2019-02-12T14:56:21.868Z,7.50
2019-02-12T14:58:51.486Z,7.50
2019-02-12T15:01:21.098Z,7.50
2019-02-12T15:03:50.767Z,7.40
2019-02-12T15:06:20.378Z,7.30
2019-02-12T15:08:50.026Z,7.20
2019-02-12T15:11:19.634Z,7.20
2019-02-12T15:13:49.274Z,7.20
2019-02-12T15:16:18.901Z,7.30
2019-02-12T15:18:48.547Z,7.20
2019-02-12T15:21:18.166Z,7.20
2019-02-12T15:23:47.861Z,7.10
2019-02-12T15:26:17.481Z,7.10
2019-02-12T15:28:47.129Z,7.00
2019-02-12T15:31:16.746Z,6.90
2019-02-12T15:33:46.407Z,6.90
2019-02-12T15:36:16.025Z,6.70
2019-02-12T15:38:45.678Z,6.70
2019-02-12T15:41:15.571Z,6.70
2019-02-12T15:43:45.262Z,6.60
2019-02-12T15:46:14.890Z,6.60
2019-02-12T15:48:44.545Z,6.40
2019-02-12T15:51:14.166Z,6.30
2019-02-12T15:53:43.815Z,6.30
2019-02-12T15:56:13.445Z,6.20
2019-02-12T15:58:43.086Z,6.10
2019-02-12T16:01:12.702Z,6.00
2019-02-12T16:03:42.351Z,5.90
2019-02-12T16:06:11.971Z,5.80
2019-02-12T16:08:41.617Z,5.80
2019-02-12T16:11:11.235Z,5.70
2019-02-12T16:13:40.878Z,5.70
2019-02-12T16:16:10.497Z,5.60
2019-02-12T16:18:40.149Z,5.50
2019-02-12T16:21:09.766Z,5.40
2019-02-12T16:23:39.662Z,5.30
2019-02-12T16:26:09.279Z,5.20
2019-02-12T16:28:38.925Z,5.20
2019-02-12T16:31:08.549Z,5.00
2019-02-12T16:33:38.194Z,4.90
2019-02-12T16:36:07.815Z,4.80
2019-02-12T16:38:37.458Z,4.80
2019-02-12T16:41:07.078Z,4.50
2019-02-12T16:43:36.762Z,4.40
2019-02-12T16:46:12.826Z,4.30
2019-02-12T16:48:42.478Z,4.10
2019-02-12T16:51:12.175Z,3.80
2019-02-12T16:53:41.870Z,3.80
2019-02-12T16:56:11.483Z,3.70
2019-02-12T16:58:41.122Z,3.60
2019-02-12T17:01:10.751Z,3.60
2019-02-12T17:03:40.406Z,3.50
2019-02-12T17:06:10.040Z,3.10
2019-02-12T17:08:39.681Z,2.90
2019-02-12T17:11:09.295Z,3.00
2019-02-12T17:13:38.957Z,3.10
2019-02-12T17:16:08.588Z,3.10
2019-02-12T17:18:38.304Z,3.10
2019-02-12T17:21:07.923Z,2.90
2019-02-12T17:23:37.570Z,2.50
2019-02-12T17:26:07.190Z,2.50
2019-02-12T17:28:36.829Z,2.50
2019-02-12T17:31:06.518Z,2.60
2019-02-12T17:33:36.166Z,2.40
2019-02-12T17:36:05.850Z,2.40
2019-02-12T17:38:35.504Z,2.50
2019-02-12T17:41:05.147Z,2.40
2019-02-12T17:43:34.809Z,2.40
2019-02-12T17:46:04.487Z,2.40
2019-02-12T17:48:34.141Z,2.30
2019-02-12T17:51:03.761Z,2.20
2019-02-12T17:53:33.474Z,1.90
2019-02-12T17:56:03.104Z,2.30
2019-02-12T17:58:32.788Z,2.30
2019-02-12T18:01:02.431Z,2.10
2019-02-12T18:03:32.051Z,2.00
2019-02-12T18:06:01.673Z,2.00
2019-02-12T18:08:31.377Z,1.90
2019-02-12T18:11:00.946Z,1.90
2019-02-12T18:13:30.659Z,1.80
2019-02-12T18:16:00.291Z,1.70
2019-02-12T18:18:30.146Z,1.80
2019-02-12T18:20:59.766Z,1.80
2019-02-12T18:23:29.416Z,1.60
2019-02-12T18:25:59.064Z,1.60
2019-02-12T18:28:28.698Z,1.70
2019-02-12T18:30:58.354Z,1.70
2019-02-12T18:33:28.178Z,1.80
2019-02-12T18:35:57.826Z,1.90
2019-02-12T18:38:27.446Z,1.80
2019-02-12T18:40:57.101Z,1.90
2019-02-12T18:43:26.725Z,1.90
2019-02-12T18:45:56.374Z,2.00
2019-02-12T18:48:25.991Z,1.90
2019-02-12T18:50:55.682Z,1.90
2019-02-12T18:53:25.458Z,1.80
2019-02-12T18:55:55.115Z,2.00
2019-02-12T18:58:24.745Z,1.80
2019-02-12T19:00:55.448Z,1.70
2019-02-12T19:03:25.274Z,1.90
2019-02-12T19:05:54.973Z,1.90
2019-02-12T19:08:24.772Z,1.90
2019-02-12T19:10:54.456Z,1.90
2019-02-12T19:13:24.191Z,1.80
2019-02-12T19:15:53.982Z,1.80
2019-02-12T19:18:25.242Z,1.90
2019-02-12T19:20:54.960Z,1.80
2019-02-12T19:23:24.935Z,1.70
2019-02-12T19:25:54.634Z,1.60
2019-02-12T19:28:24.245Z,1.60
2019-02-12T19:30:53.898Z,1.70
2019-02-12T19:33:23.523Z,1.90
2019-02-12T19:35:53.168Z,1.90
2019-02-12T19:38:22.804Z,1.70
2019-02-12T19:40:52.462Z,1.70
2019-02-12T19:43:25.144Z,1.70
2019-02-12T19:45:54.792Z,1.80
2019-02-12T19:48:25.182Z,1.90
2019-02-12T19:50:55.051Z,1.90
2019-02-12T19:53:24.751Z,2.00
2019-02-12T19:55:54.410Z,1.80
2019-02-12T19:58:24.026Z,1.70
2019-02-12T20:00:53.682Z,1.60
2019-02-12T20:03:23.324Z,1.40
2019-02-12T20:05:52.962Z,1.40
2019-02-12T20:08:22.727Z,1.40
2019-02-12T20:10:52.409Z,1.40
2019-02-12T20:13:22.242Z,1.50
2019-02-12T20:15:51.890Z,1.50
2019-02-12T20:18:21.519Z,1.60
2019-02-12T20:20:51.254Z,1.60
2019-02-12T20:23:20.894Z,1.70
2019-02-12T20:25:50.547Z,1.70
2019-02-12T20:28:20.171Z,1.50
2019-02-12T20:30:49.820Z,1.30
2019-02-12T20:33:19.888Z,1.20
2019-02-12T20:35:49.783Z,1.20
2019-02-12T20:38:19.412Z,1.10
2019-02-12T20:40:49.066Z,1.10
2019-02-12T20:43:18.694Z,1.10
2019-02-12T20:45:48.516Z,1.10
2019-02-12T20:48:18.128Z,0.90
2019-02-12T20:50:47.836Z,0.80
2019-02-12T20:53:18.025Z,0.80
2019-02-12T20:55:47.755Z,0.90
2019-02-12T20:58:17.418Z,0.80
2019-02-12T21:00:47.083Z,0.80
2019-02-12T21:03:16.721Z,0.80
2019-02-12T21:05:46.373Z,0.80
2019-02-12T21:08:16.162Z,0.60
2019-02-12T21:10:45.809Z,0.70
2019-02-12T21:13:15.661Z,0.60
2019-02-12T21:15:46.679Z,0.70
2019-02-12T21:18:16.310Z,0.70
2019-02-12T21:20:47.628Z,0.40
2019-02-12T21:23:17.384Z,0.40
2019-02-12T21:25:47.198Z,0.50
2019-02-12T21:28:17.001Z,0.40
2019-02-12T21:30:46.966Z,0.30
2019-02-12T21:33:16.635Z,0.10
2019-02-12T21:35:46.508Z,0.10
2019-02-12T21:38:16.703Z,0.10
2019-02-12T21:40:46.422Z,0.10
2019-02-12T21:43:16.034Z,0.10
2019-02-12T21:45:47.813Z,0.20
2019-02-12T21:48:17.635Z,0.10
2019-02-12T21:50:47.754Z,0.10
2019-02-12T21:53:18.076Z,0.10
2019-02-12T21:55:47.989Z,0.10
2019-02-12T21:58:17.903Z,0.20
2019-02-12T22:00:47.812Z,0.10
2019-02-12T22:03:18.138Z,0.00
2019-02-12T22:05:49.386Z,0.00
2019-02-12T22:08:20.925Z,-0.10
2019-02-12T22:10:52.374Z,-0.10
2019-02-12T22:13:22.192Z,-0.10
2019-02-12T22:15:52.086Z,-0.10
2019-02-12T22:18:21.944Z,-0.20
2019-02-12T22:20:51.707Z,-0.10
2019-02-12T22:23:21.597Z,0.00
2019-02-12T22:25:51.479Z,-0.10
2019-02-12T22:28:21.343Z,-0.20
2019-02-12T22:30:50.973Z,-0.10
2019-02-12T22:33:21.189Z,-0.10
2019-02-12T22:35:51.009Z,-0.20
2019-02-12T22:38:20.707Z,-0.20
2019-02-12T22:40:50.352Z,-0.20
2019-02-12T22:43:20.313Z,-0.20
2019-02-12T22:45:50.199Z,-0.20
2019-02-12T22:48:19.880Z,-0.20
2019-02-12T22:50:49.473Z,-0.40
2019-02-12T22:53:19.129Z,-0.40
2019-02-12T22:55:48.878Z,-0.40
2019-02-12T22:58:18.526Z,-0.40
2019-02-12T23:00:57.768Z,-0.40
2019-02-12T23:03:27.414Z,-0.40
2019-02-12T23:05:57.112Z,-0.50
2019-02-12T23:08:26.836Z,-0.40
2019-02-12T23:10:56.630Z,-0.40
2019-02-12T23:13:26.286Z,-0.50
2019-02-12T23:15:55.918Z,-0.40
2019-02-12T23:18:25.575Z,-0.60
2019-02-12T23:20:55.198Z,-0.40
2019-02-12T23:23:24.837Z,-0.60
2019-02-12T23:25:54.457Z,-0.70
2019-02-12T23:28:24.109Z,-0.60
2019-02-12T23:30:53.738Z,-0.60
2019-02-12T23:33:23.387Z,-0.60
2019-02-12T23:35:53.024Z,-0.70
2019-02-12T23:38:22.665Z,-0.70
2019-02-12T23:40:52.290Z,-0.60
2019-02-12T23:43:22.022Z,-0.70
2019-02-12T23:45:51.658Z,-0.70
2019-02-12T23:48:21.306Z,-0.70
2019-02-12T23:50:50.930Z,-0.60
2019-02-12T23:53:20.588Z,-0.60
2019-02-12T23:55:50.210Z,-0.70
2019-02-12T23:58:19.872Z,-0.60
